Time;durP1;ratioP1;P1;durP2;ratioP2;P2;SDS_P1;SDS_P2;PMS_P1;PMS_P2;Temp;Humidity;BMP_temperature;BMP_pressure;BME280_temperature;BME280_humidity;BME280_pressure;Samples;Min_cycle;Max_cycle;Signal;HPM_P1;HPM_P2
2023/02/18 00:01:26;;;;;;;1.83;0.65;;;;;;;;;;5057251;28;20057;-55
2023/02/18 00:03:52;;;;;;;1.27;0.60;;;;;;;;;;5056663;28;20088;-57
2023/02/18 00:06:18;;;;;;;2.55;0.70;;;;;;;;;;5056651;28;20033;-56
2023/02/18 00:08:44;;;;;;;2.22;1.02;;;;;;;;;;5056768;28;20091;-54
2023/02/18 00:11:10;;;;;;;1.08;0.40;;;;;;;;;;5056775;28;20029;-56
2023/02/18 00:13:36;;;;;;;0.75;0.32;;;;;;;;;;5057248;28;20035;-55
2023/02/18 00:16:04;;;;;;;0.75;0.40;;;;;;;;;;5057552;28;20120;-57
2023/02/18 00:18:30;;;;;;;2.40;0.93;;;;;;;;;;5056195;28;20029;-56
2023/02/18 00:20:56;;;;;;;1.50;0.43;;;;;;;;;;5056563;28;20025;-58
2023/02/18 00:23:22;;;;;;;0.88;0.40;;;;;;;;;;5056282;28;20025;-57
2023/02/18 00:25:48;;;;;;;1.20;0.60;;;;;;;;;;5056453;28;20029;-56
2023/02/18 00:28:14;;;;;;;1.13;0.60;;;;;;;;;;5056758;28;20050;-56
2023/02/18 00:30:40;;;;;;;0.85;0.30;;;;;;;;;;5056350;28;20032;-56
2023/02/18 00:33:06;;;;;;;0.47;0.20;;;;;;;;;;5056711;28;20046;-54
2023/02/18 00:35:32;;;;;;;0.88;0.43;;;;;;;;;;5056432;28;20401;-56
2023/02/18 00:37:58;;;;;;;0.95;0.50;;;;;;;;;;5056369;28;20071;-56
2023/02/18 00:40:24;;;;;;;0.60;0.30;;;;;;;;;;5055937;28;20029;-58
2023/02/18 00:42:50;;;;;;;1.45;0.50;;;;;;;;;;5056785;28;20032;-52
2023/02/18 00:45:16;;;;;;;2.08;0.77;;;;;;;;;;5056717;28;20086;-58
2023/02/18 00:47:42;;;;;;;1.17;0.70;;;;;;;;;;5055777;28;20124;-55
2023/02/18 00:50:09;;;;;;;0.75;0.40;;;;;;;;;;5056014;28;20057;-55
2023/02/18 00:52:34;;;;;;;3.60;0.63;;;;;;;;;;5056100;28;20127;-55
2023/02/18 00:55:00;;;;;;;0.88;0.47;;;;;;;;;;5056148;28;20366;-56
2023/02/18 00:57:26;;;;;;;0.98;0.35;;;;;;;;;;5055917;28;20112;-57
2023/02/18 00:59:52;;;;;;;1.02;0.40;;;;;;;;;;5055898;28;20037;-57
2023/02/18 01:02:18;;;;;;;1.50;0.68;;;;;;;;;;5055858;28;20356;-57
2023/02/18 01:04:44;;;;;;;1.02;0.43;;;;;;;;;;5056499;28;20045;-56
2023/02/18 01:07:10;;;;;;;1.02;0.50;;;;;;;;;;5055978;28;20028;-58
2023/02/18 01:09:36;;;;;;;1.88;0.80;;;;;;;;;;5055363;28;20032;-55
2023/02/18 01:12:03;;;;;;;0.90;0.47;;;;;;;;;;5055730;28;20029;-54
2023/02/18 01:14:29;;;;;;;1.98;0.75;;;;;;;;;;5055863;28;20021;-57
2023/02/18 01:16:54;;;;;;;1.65;0.75;;;;;;;;;;5055135;28;20112;-57
2023/02/18 01:19:20;;;;;;;1.00;0.38;;;;;;;;;;5055737;28;20025;-57
2023/02/18 01:21:46;;;;;;;0.77;0.40;;;;;;;;;;5055224;28;20057;-57
2023/02/18 01:24:12;;;;;;;1.75;0.60;;;;;;;;;;5055699;28;20447;-57
2023/02/18 01:26:38;;;;;;;0.63;0.30;;;;;;;;;;5055708;28;20029;-57
2023/02/18 01:29:04;;;;;;;1.52;0.73;;;;;;;;;;5054990;28;20029;-55
2023/02/18 01:31:30;;;;;;;0.65;0.30;;;;;;;;;;5055051;28;20379;-57
2023/02/18 01:33:56;;;;;;;0.47;0.30;;;;;;;;;;5055264;28;20162;-55
2023/02/18 01:36:22;;;;;;;1.40;0.60;;;;;;;;;;5055541;28;20025;-57
2023/02/18 01:38:48;;;;;;;0.95;0.50;;;;;;;;;;5055441;28;20352;-54
2023/02/18 01:41:14;;;;;;;1.30;0.57;;;;;;;;;;5055058;28;20028;-56
2023/02/18 01:43:40;;;;;;;1.40;0.95;;;;;;;;;;5054589;28;20021;-55
2023/02/18 01:46:26;;;;;;;1.50;0.80;;;;;;;;;;5055376;28;20470;-53
2023/02/18 01:48:54;;;;;;;0.75;0.43;;;;;;;;;;5054999;28;20060;-54
2023/02/18 01:51:25;;;;;;;2.25;0.85;;;;;;;;;;5054943;28;20028;-51
2023/02/18 01:53:54;;;;;;;1.63;0.90;;;;;;;;;;5054914;28;20029;-52
2023/02/18 01:56:23;;;;;;;1.17;0.60;;;;;;;;;;5055392;28;20021;-54
2023/02/18 01:58:50;;;;;;;1.20;0.60;;;;;;;;;;5054757;28;20033;-52
2023/02/18 02:01:16;;;;;;;2.47;0.50;;;;;;;;;;5054666;28;20025;-53
2023/02/18 02:03:42;;;;;;;0.95;0.50;;;;;;;;;;5054816;28;20107;-53
2023/02/18 02:06:16;;;;;;;1.90;0.88;;;;;;;;;;5054561;28;20033;-52
2023/02/18 02:08:43;;;;;;;2.08;0.85;;;;;;;;;;5054790;28;20047;-53
2023/02/18 02:11:12;;;;;;;1.17;0.50;;;;;;;;;;5054304;28;20383;-52
2023/02/18 02:13:38;;;;;;;1.67;0.90;;;;;;;;;;5054433;28;20029;-53
2023/02/18 02:16:12;;;;;;;1.10;0.68;;;;;;;;;;5055064;28;20082;-52
2023/02/18 02:18:41;;;;;;;1.48;0.70;;;;;;;;;;5054298;28;20025;-55
2023/02/18 02:21:07;;;;;;;1.17;0.60;;;;;;;;;;5053662;28;20371;-52
2023/02/18 02:23:48;;;;;;;1.50;0.80;;;;;;;;;;5054342;28;20036;-55
2023/02/18 02:26:30;;;;;;;1.92;1.00;;;;;;;;;;5054787;28;20029;-53
2023/02/18 02:29:03;;;;;;;1.45;0.65;;;;;;;;;;5053873;28;20463;-53
2023/02/18 02:31:32;;;;;;;1.90;0.82;;;;;;;;;;5054172;28;20041;-51
2023/02/18 02:34:17;;;;;;;1.42;0.75;;;;;;;;;;5054194;28;20025;-54
2023/02/18 02:36:48;;;;;;;1.20;0.80;;;;;;;;;;5054097;28;20029;-53
2023/02/18 02:39:20;;;;;;;2.38;1.30;;;;;;;;;;5053865;28;20028;-55
2023/02/18 02:41:52;;;;;;;1.67;1.10;;;;;;;;;;5054553;28;20447;-55
2023/02/18 02:44:30;;;;;;;1.13;0.60;;;;;;;;;;5054820;28;20021;-53
2023/02/18 02:47:00;;;;;;;2.90;0.90;;;;;;;;;;5054237;28;20025;-54
2023/02/18 02:49:36;;;;;;;2.25;1.15;;;;;;;;;;5054383;28;20029;-55
2023/02/18 02:52:09;;;;;;;1.33;0.70;;;;;;;;;;5054476;28;20028;-53
2023/02/18 02:54:35;;;;;;;1.88;0.80;;;;;;;;;;5054128;28;20032;-55
2023/02/18 02:57:21;;;;;;;1.75;0.88;;;;;;;;;;5054406;28;20447;-55
2023/02/18 02:59:49;;;;;;;2.35;0.98;;;;;;;;;;5049626;28;20114;-53
2023/02/18 03:02:18;;;;;;;2.60;1.42;;;;;;;;;;5053525;28;20052;-55
2023/02/18 03:04:44;;;;;;;1.60;1.10;;;;;;;;;;5053800;28;20049;-55
2023/02/18 03:07:30;;;;;;;2.25;0.98;;;;;;;;;;5053736;28;20056;-53
2023/02/18 03:10:05;;;;;;;1.95;0.98;;;;;;;;;;5042472;28;20414;-54
2023/02/18 03:12:46;;;;;;;1.63;0.95;;;;;;;;;;5053591;28;20021;-54
2023/02/18 03:15:12;;;;;;;;;;;;;;;;;;5054391;28;20032;-53
2023/02/18 03:17:44;;;;;;;1.70;0.88;;;;;;;;;;5053485;28;19966;-55
2023/02/18 03:20:12;;;;;;;1.73;0.90;;;;;;;;;;5053950;28;20029;-53
2023/02/18 03:22:40;;;;;;;1.35;0.57;;;;;;;;;;5053611;28;20025;-55
2023/02/18 03:25:07;;;;;;;1.33;0.60;;;;;;;;;;5053916;28;20037;-55
2023/02/18 03:27:35;;;;;;;1.55;0.80;;;;;;;;;;5053546;28;20454;-54
2023/02/18 03:30:04;;;;;;;2.67;1.05;;;;;;;;;;5053429;28;20107;-55
2023/02/18 03:32:31;;;;;;;1.08;0.52;;;;;;;;;;5054990;28;20036;-54
2023/02/18 03:35:00;;;;;;;3.42;0.93;;;;;;;;;;5057573;28;20053;-55
2023/02/18 03:37:26;;;;;;;1.35;0.80;;;;;;;;;;5057455;28;20025;-54
2023/02/18 03:39:55;;;;;;;3.88;1.17;;;;;;;;;;5057751;28;20285;-53
2023/02/18 03:42:25;;;;;;;1.73;0.98;;;;;;;;;;5057646;28;20098;-57
2023/02/18 03:44:51;;;;;;;1.50;0.70;;;;;;;;;;5057411;28;20025;-53
2023/02/18 03:47:16;;;;;;;2.03;1.10;;;;;;;;;;5057284;28;20259;-55
2023/02/18 03:49:42;;;;;;;1.48;0.90;;;;;;;;;;5057197;28;20033;-57
2023/02/18 03:52:10;;;;;;;2.30;1.00;;;;;;;;;;5057468;28;20040;-57
2023/02/18 03:54:36;;;;;;;1.58;0.93;;;;;;;;;;5057631;28;20122;-56
2023/02/18 03:57:02;;;;;;;1.83;1.05;;;;;;;;;;5057066;28;20534;-57
2023/02/18 03:59:28;;;;;;;1.30;0.77;;;;;;;;;;5057033;28;20108;-56
2023/02/18 04:01:54;;;;;;;1.73;0.75;;;;;;;;;;5056998;28;20112;-58
2023/02/18 04:04:20;;;;;;;1.02;0.70;;;;;;;;;;5057173;28;20045;-56
2023/02/18 04:06:46;;;;;;;1.85;1.02;;;;;;;;;;5056837;28;20025;-55
2023/02/18 04:09:12;;;;;;;1.58;0.98;;;;;;;;;;5057085;28;20035;-57
2023/02/18 04:11:38;;;;;;;2.17;1.00;;;;;;;;;;5056516;28;20036;-56
2023/02/18 04:14:04;;;;;;;3.50;1.45;;;;;;;;;;5057487;28;20067;-54
2023/02/18 04:16:30;;;;;;;1.13;0.60;;;;;;;;;;5057111;28;20021;-56
2023/02/18 04:18:56;;;;;;;1.13;0.55;;;;;;;;;;5056887;28;20040;-56
2023/02/18 04:21:22;;;;;;;1.67;0.90;;;;;;;;;;5056561;28;20040;-50
2023/02/18 04:23:48;;;;;;;1.98;0.77;;;;;;;;;;5056579;28;20025;-52
2023/02/18 04:26:14;;;;;;;1.17;0.57;;;;;;;;;;5056299;28;20025;-53
2023/02/18 04:28:40;;;;;;;1.80;0.98;;;;;;;;;;5056217;28;20033;-54
2023/02/18 04:31:06;;;;;;;1.50;0.77;;;;;;;;;;5056800;28;20449;-53
2023/02/18 04:33:32;;;;;;;1.80;0.80;;;;;;;;;;5056441;28;20033;-53
2023/02/18 04:35:58;;;;;;;1.23;0.70;;;;;;;;;;5056511;28;20021;-55
2023/02/18 04:38:24;;;;;;;1.08;0.52;;;;;;;;;;5056430;28;20029;-52
2023/02/18 04:40:50;;;;;;;2.58;0.95;;;;;;;;;;5056700;28;20065;-54
2023/02/18 04:43:16;;;;;;;1.88;0.80;;;;;;;;;;5056349;28;20402;-55
2023/02/18 04:45:42;;;;;;;3.17;1.23;;;;;;;;;;5056495;28;20029;-55
2023/02/18 04:48:08;;;;;;;2.50;1.00;;;;;;;;;;5056534;28;20362;-53
2023/02/18 04:50:34;;;;;;;4.22;1.00;;;;;;;;;;5056049;28;20367;-51
2023/02/18 04:53:00;;;;;;;1.55;0.63;;;;;;;;;;5055920;28;20029;-58
2023/02/18 04:55:26;;;;;;;2.03;1.02;;;;;;;;;;5056208;28;20029;-53
2023/02/18 04:57:52;;;;;;;1.88;1.15;;;;;;;;;;5056075;28;20025;-52
2023/02/18 05:00:18;;;;;;;1.42;0.82;;;;;;;;;;5056023;28;20091;-54
2023/02/18 05:02:45;;;;;;;1.30;0.75;;;;;;;;;;5055830;28;20045;-51
2023/02/18 05:05:11;;;;;;;1.40;0.80;;;;;;;;;;5056239;28;20029;-52
2023/02/18 05:07:37;;;;;;;2.03;0.73;;;;;;;;;;5055906;28;20021;-55
2023/02/18 05:10:04;;;;;;;1.50;0.73;;;;;;;;;;5056024;28;20120;-53
2023/02/18 05:12:30;;;;;;;1.75;0.77;;;;;;;;;;5056486;28;20028;-55
2023/02/18 05:14:56;;;;;;;1.30;0.60;;;;;;;;;;5056035;28;20025;-53
2023/02/18 05:17:22;;;;;;;2.00;1.05;;;;;;;;;;5055854;28;20070;-52
2023/02/18 05:19:48;;;;;;;5.10;0.90;;;;;;;;;;5055666;28;20459;-55
2023/02/18 05:22:14;;;;;;;2.65;0.75;;;;;;;;;;5055573;28;20024;-55
2023/02/18 05:24:40;;;;;;;2.10;0.80;;;;;;;;;;5055909;28;20078;-55
2023/02/18 05:27:06;;;;;;;1.52;0.70;;;;;;;;;;5055777;28;20028;-52
2023/02/18 05:29:31;;;;;;;1.50;0.80;;;;;;;;;;5055628;28;20065;-53
2023/02/18 05:31:57;;;;;;;1.77;0.90;;;;;;;;;;5055287;28;20041;-52
2023/02/18 05:34:23;;;;;;;1.65;0.88;;;;;;;;;;5055615;28;20021;-54
2023/02/18 05:36:49;;;;;;;1.27;0.70;;;;;;;;;;5055603;28;20056;-55
2023/02/18 05:39:15;;;;;;;1.63;0.80;;;;;;;;;;5056009;28;20029;-54
2023/02/18 05:41:41;;;;;;;2.75;1.13;;;;;;;;;;5055244;28;20039;-52
2023/02/18 05:46:52;;;;;;;1.98;0.75;;;;;;;;;;5055207;28;20098;-53
2023/02/18 05:49:18;;;;;;;1.35;0.73;;;;;;;;;;5055060;28;20458;-53
2023/02/18 05:51:44;;;;;;;1.48;1.00;;;;;;;;;;5054660;28;20100;-51
2023/02/18 05:54:10;;;;;;;2.35;0.93;;;;;;;;;;5054950;28;20021;-52
2023/02/18 05:56:35;;;;;;;1.77;1.02;;;;;;;;;;5054466;28;20022;-54
2023/02/18 05:59:01;;;;;;;2.17;0.93;;;;;;;;;;5054628;28;20167;-52
2023/02/18 06:01:27;;;;;;;1.38;0.73;;;;;;;;;;5055653;28;20021;-54
2023/02/18 06:03:53;;;;;;;0.93;0.45;;;;;;;;;;5054731;28;20483;-51
2023/02/18 06:06:19;;;;;;;2.17;0.90;;;;;;;;;;5054831;28;20418;-53
2023/02/18 06:08:45;;;;;;;2.20;1.08;;;;;;;;;;5054887;28;20056;-55
2023/02/18 06:11:11;;;;;;;2.40;1.08;;;;;;;;;;5054693;28;20033;-54
2023/02/18 06:13:37;;;;;;;1.77;0.98;;;;;;;;;;5055169;28;20060;-51
2023/02/18 06:16:03;;;;;;;1.38;0.93;;;;;;;;;;5054637;28;20454;-51
2023/02/18 06:18:29;;;;;;;1.98;0.98;;;;;;;;;;5054405;28;20029;-55
2023/02/18 06:20:55;;;;;;;1.25;0.80;;;;;;;;;;5054937;28;20094;-49
2023/02/18 06:23:21;;;;;;;3.15;0.73;;;;;;;;;;5054348;28;20021;-51
2023/02/18 06:25:50;;;;;;;1.48;0.75;;;;;;;;;;5054979;28;20040;-54
2023/02/18 06:28:16;;;;;;;4.25;0.88;;;;;;;;;;5054666;28;20028;-53
2023/02/18 06:30:42;;;;;;;0.85;0.47;;;;;;;;;;5054497;28;20101;-51
2023/02/18 06:33:08;;;;;;;1.38;0.75;;;;;;;;;;5054578;28;20115;-55
2023/02/18 06:35:34;;;;;;;1.77;0.77;;;;;;;;;;5055048;28;20442;-52
2023/02/18 06:38:00;;;;;;;1.27;0.65;;;;;;;;;;5054439;28;20455;-52
2023/02/18 06:40:26;;;;;;;1.98;1.02;;;;;;;;;;5054586;28;20055;-50
2023/02/18 06:42:52;;;;;;;2.83;1.02;;;;;;;;;;5054678;28;20466;-51
2023/02/18 06:45:18;;;;;;;1.42;0.75;;;;;;;;;;5054926;28;20025;-54
2023/02/18 06:47:44;;;;;;;1.30;0.65;;;;;;;;;;5053957;28;20052;-52
2023/02/18 06:50:10;;;;;;;1.58;0.90;;;;;;;;;;5053931;28;20082;-52
2023/02/18 06:52:36;;;;;;;2.20;0.80;;;;;;;;;;5053886;28;20091;-52
2023/02/18 06:55:04;;;;;;;2.05;1.15;;;;;;;;;;5054518;28;20025;-53
2023/02/18 06:57:30;;;;;;;2.25;1.13;;;;;;;;;;5054005;28;20455;-55
2023/02/18 06:59:56;;;;;;;1.92;1.02;;;;;;;;;;5053809;28;20033;-56
2023/02/18 07:02:22;;;;;;;1.77;0.90;;;;;;;;;;5053521;28;20033;-53
2023/02/18 07:04:48;;;;;;;2.38;0.73;;;;;;;;;;5053549;28;20049;-55
2023/02/18 07:07:14;;;;;;;1.60;0.82;;;;;;;;;;5053322;28;20033;-55
2023/02/18 07:09:40;;;;;;;3.03;1.27;;;;;;;;;;5053536;28;20033;-55
2023/02/18 07:12:06;;;;;;;2.08;1.10;;;;;;;;;;5053568;28;20033;-54
2023/02/18 07:14:32;;;;;;;1.88;0.88;;;;;;;;;;5053606;28;20029;-54
2023/02/18 07:16:58;;;;;;;1.45;0.70;;;;;;;;;;5053955;28;20025;-56
2023/02/18 07:19:23;;;;;;;2.42;0.77;;;;;;;;;;5053689;28;20032;-54
2023/02/18 07:21:49;;;;;;;1.50;0.90;;;;;;;;;;5053806;28;20071;-56
2023/02/18 07:24:15;;;;;;;2.20;1.00;;;;;;;;;;5053569;28;20036;-51
2023/02/18 07:26:41;;;;;;;3.10;1.23;;;;;;;;;;5053483;28;20036;-54
2023/02/18 07:29:08;;;;;;;1.92;1.00;;;;;;;;;;5053475;28;20032;-53
2023/02/18 07:31:34;;;;;;;1.23;0.73;;;;;;;;;;5053480;28;20039;-51
2023/02/18 07:34:00;;;;;;;1.30;0.70;;;;;;;;;;5053410;28;20108;-54
2023/02/18 07:36:26;;;;;;;2.67;1.10;;;;;;;;;;5054070;28;20075;-56
2023/02/18 07:38:52;;;;;;;1.77;0.98;;;;;;;;;;5053371;28;20063;-54
2023/02/18 07:41:19;;;;;;;1.60;0.95;;;;;;;;;;5053364;28;20032;-54
2023/02/18 07:43:45;;;;;;;2.78;1.30;;;;;;;;;;5053377;28;20037;-53
2023/02/18 07:46:11;;;;;;;5.03;1.08;;;;;;;;;;5054172;28;20359;-56
2023/02/18 07:48:37;;;;;;;3.15;1.48;;;;;;;;;;5053350;28;20021;-54
2023/02/18 07:51:07;;;;;;;2.10;1.15;;;;;;;;;;5053351;28;20041;-55
2023/02/18 07:53:33;;;;;;;2.20;1.30;;;;;;;;;;5053454;28;20083;-55
2023/02/18 07:55:59;;;;;;;1.60;1.02;;;;;;;;;;5053031;28;20029;-56
2023/02/18 07:58:27;;;;;;;2.38;1.20;;;;;;;;;;5053196;28;20032;-56
2023/02/18 08:00:53;;;;;;;1.85;0.98;;;;;;;;;;5053300;28;20442;-56
2023/02/18 08:03:20;;;;;;;1.73;0.80;;;;;;;;;;5053606;28;20053;-55
2023/02/18 08:05:48;;;;;;;3.58;1.10;;;;;;;;;;5053729;28;20410;-54
2023/02/18 08:08:15;;;;;;;1.85;1.05;;;;;;;;;;5052881;28;20020;-55
2023/02/18 08:10:41;;;;;;;1.60;1.08;;;;;;;;;;5052963;28;20033;-54
2023/02/18 08:13:07;;;;;;;1.77;1.02;;;;;;;;;;5053023;28;20029;-54
2023/02/18 08:15:33;;;;;;;1.83;0.85;;;;;;;;;;5052777;28;20029;-55
2023/02/18 08:17:59;;;;;;;1.27;0.82;;;;;;;;;;5052946;28;20064;-53
2023/02/18 08:20:25;;;;;;;2.60;1.52;;;;;;;;;;5056819;28;20032;-55
2023/02/18 08:22:51;;;;;;;2.20;1.15;;;;;;;;;;5056317;28;20032;-55
2023/02/18 08:25:17;;;;;;;2.28;1.35;;;;;;;;;;5057319;28;20025;-51
2023/02/18 08:27:43;;;;;;;2.17;0.95;;;;;;;;;;5056530;28;20040;-55
2023/02/18 08:30:09;;;;;;;2.05;1.30;;;;;;;;;;5056686;28;20029;-55
2023/02/18 08:32:35;;;;;;;2.08;1.17;;;;;;;;;;5056665;28;20037;-56
2023/02/18 08:35:02;;;;;;;1.48;0.82;;;;;;;;;;5057026;28;20025;-56
2023/02/18 08:37:28;;;;;;;4.30;1.13;;;;;;;;;;5056465;28;20031;-55
2023/02/18 08:39:54;;;;;;;1.83;1.00;;;;;;;;;;5056600;28;20033;-56
2023/02/18 08:42:20;;;;;;;1.52;0.93;;;;;;;;;;5056383;28;20021;-55
2023/02/18 08:44:46;;;;;;;1.70;0.82;;;;;;;;;;5056548;28;20105;-56
2023/02/18 08:47:11;;;;;;;2.53;1.38;;;;;;;;;;5056114;28;20433;-56
2023/02/18 08:49:37;;;;;;;1.48;0.88;;;;;;;;;;5056252;28;20455;-55
2023/02/18 08:52:04;;;;;;;1.77;0.60;;;;;;;;;;5055887;28;20029;-53
2023/02/18 08:54:30;;;;;;;1.92;0.90;;;;;;;;;;5056217;28;20044;-56
2023/02/18 08:56:56;;;;;;;1.55;0.80;;;;;;;;;;5055605;28;20021;-52
2023/02/18 08:59:23;;;;;;;1.40;0.55;;;;;;;;;;5056478;28;20052;-55
2023/02/18 09:01:49;;;;;;;2.65;1.20;;;;;;;;;;5056120;28;20025;-55
2023/02/18 09:04:15;;;;;;;1.83;0.82;;;;;;;;;;5055934;28;20056;-56
2023/02/18 09:06:41;;;;;;;2.05;1.10;;;;;;;;;;5055805;28;20466;-55
2023/02/18 09:09:07;;;;;;;2.00;1.00;;;;;;;;;;5055985;28;20033;-54
2023/02/18 09:11:33;;;;;;;2.25;1.17;;;;;;;;;;5055582;28;20029;-55
2023/02/18 09:13:59;;;;;;;2.08;1.00;;;;;;;;;;5055744;28;20025;-56
2023/02/18 09:16:27;;;;;;;1.80;0.95;;;;;;;;;;5055961;28;20100;-55
2023/02/18 09:18:53;;;;;;;4.20;1.10;;;;;;;;;;5055471;28;20403;-52
2023/02/18 09:21:19;;;;;;;1.80;0.80;;;;;;;;;;5055601;28;20363;-56
2023/02/18 09:23:46;;;;;;;4.30;1.13;;;;;;;;;;5055590;28;20033;-55
2023/02/18 09:26:13;;;;;;;1.40;0.75;;;;;;;;;;5056122;28;20024;-56
2023/02/18 09:28:39;;;;;;;1.98;0.75;;;;;;;;;;5055344;28;20025;-54
2023/02/18 09:31:07;;;;;;;1.30;0.77;;;;;;;;;;5055036;28;20041;-50
2023/02/18 09:33:36;;;;;;;3.58;0.82;;;;;;;;;;5055374;28;20033;-55
2023/02/18 09:36:02;;;;;;;2.53;0.65;;;;;;;;;;5054985;28;20075;-55
2023/02/18 09:38:28;;;;;;;2.45;0.85;;;;;;;;;;5055344;28;20086;-52
2023/02/18 09:40:54;;;;;;;2.13;0.98;;;;;;;;;;5055587;28;20123;-56
2023/02/18 09:43:41;;;;;;;15.88;2.25;;;;;;;;;;5054912;28;20451;-56
2023/02/18 09:46:14;;;;;;;1.48;0.95;;;;;;;;;;5054758;28;20029;-57
2023/02/18 09:48:48;;;;;;;1.80;0.60;;;;;;;;;;5055624;28;20025;-57
2023/02/18 09:51:14;;;;;;;1.13;0.60;;;;;;;;;;5055544;28;20037;-57
2023/02/18 09:53:43;;;;;;;2.05;1.10;;;;;;;;;;5055161;28;20028;-57
2023/02/18 09:56:11;;;;;;;1.30;0.60;;;;;;;;;;5055482;28;20372;-56
2023/02/18 09:58:37;;;;;;;1.45;0.60;;;;;;;;;;5054557;28;20024;-57
2023/02/18 10:01:06;;;;;;;1.73;0.90;;;;;;;;;;5055189;28;20359;-57
2023/02/18 10:03:32;;;;;;;1.40;0.85;;;;;;;;;;5054695;28;20051;-57
2023/02/18 10:06:24;;;;;;;1.90;0.80;;;;;;;;;;5054664;28;20036;-57
2023/02/18 10:08:52;;;;;;;2.22;1.00;;;;;;;;;;5053084;28;20116;-57
2023/02/18 10:11:28;;;;;;;1.30;0.55;;;;;;;;;;5055119;28;20029;-57
2023/02/18 10:13:56;;;;;;;2.03;0.93;;;;;;;;;;5054880;28;20057;-57
2023/02/18 10:16:22;;;;;;;1.55;0.70;;;;;;;;;;5055103;28;20119;-58
2023/02/18 10:18:50;;;;;;;1.45;0.70;;;;;;;;;;5054382;28;20087;-58
2023/02/18 10:21:19;;;;;;;1.90;1.02;;;;;;;;;;5054383;28;20414;-58
2023/02/18 10:23:51;;;;;;;2.20;0.98;;;;;;;;;;5054061;28;20029;-57
2023/02/18 10:26:18;;;;;;;2.25;0.93;;;;;;;;;;5053847;28;20020;-58
2023/02/18 10:28:44;;;;;;;1.70;0.70;;;;;;;;;;5053875;28;20481;-57
2023/02/18 10:31:12;;;;;;;1.50;0.70;;;;;;;;;;5054545;28;20055;-58
2023/02/18 10:33:57;;;;;;;0.88;0.50;;;;;;;;;;5054005;28;20063;-57
2023/02/18 10:36:28;;;;;;;0.63;0.32;;;;;;;;;;5054753;28;20104;-57
2023/02/18 10:39:03;;;;;;;2.28;1.20;;;;;;;;;;5054104;28;20029;-58
2023/02/18 10:41:43;;;;;;;1.38;0.52;;;;;;;;;;5053648;28;20116;-57
2023/02/18 10:44:09;;;;;;;;;;;;;;;;;;5054388;28;20048;-57
2023/02/18 10:46:44;;;;;;;1.10;0.63;;;;;;;;;;5054247;28;19905;-57
2023/02/18 10:49:23;;;;;;;1.27;0.75;;;;;;;;;;5054146;28;20036;-55
2023/02/18 10:51:50;;;;;;;0.93;0.38;;;;;;;;;;5053901;28;20079;-57
2023/02/18 10:54:16;;;;;;;1.77;0.68;;;;;;;;;;5053793;28;20475;-56
2023/02/18 10:56:47;;;;;;;1.90;0.57;;;;;;;;;;5054408;28;20451;-57
2023/02/18 10:59:18;;;;;;;1.02;0.55;;;;;;;;;;5052741;28;20112;-57
2023/02/18 11:01:44;;;;;;;1.02;0.57;;;;;;;;;;5054029;28;20021;-56
2023/02/18 11:04:18;;;;;;;1.83;0.73;;;;;;;;;;5053798;28;20040;-57
2023/02/18 11:06:48;;;;;;;1.60;0.93;;;;;;;;;;5054212;28;20363;-56
2023/02/18 11:09:50;;;;;;;1.67;0.90;;;;;;;;;;5053317;28;20032;-57
2023/02/18 11:12:19;;;;;;;1.05;0.52;;;;;;;;;;5031649;28;20116;-55
2023/02/18 11:14:46;;;;;;;2.95;0.50;;;;;;;;;;5049590;28;20479;-57
2023/02/18 11:17:30;;;;;;;1.08;0.52;;;;;;;;;;5053814;28;20366;-57
2023/02/18 11:19:57;;;;;;;1.38;0.88;;;;;;;;;;5053035;28;20107;-56
2023/02/18 11:22:25;;;;;;;0.90;0.40;;;;;;;;;;5053402;28;20024;-56
2023/02/18 11:24:55;;;;;;;0.63;0.30;;;;;;;;;;5053505;28;20025;-55
2023/02/18 11:27:42;;;;;;;3.00;0.75;;;;;;;;;;5053640;28;20533;-56
2023/02/18 11:30:18;;;;;;;1.35;0.75;;;;;;;;;;5053953;28;20367;-57
2023/02/18 11:32:45;;;;;;;1.55;0.60;;;;;;;;;;5053928;28;20032;-55
2023/02/18 11:35:22;;;;;;;1.10;0.63;;;;;;;;;;5053880;28;20112;-57
2023/02/18 11:37:48;;;;;;;0.82;0.50;;;;;;;;;;5052967;28;20052;-56
2023/02/18 11:40:30;;;;;;;1.88;0.68;;;;;;;;;;5053357;28;20035;-57
2023/02/18 11:43:06;;;;;;;3.92;0.80;;;;;;;;;;5053612;28;20056;-55
2023/02/18 11:45:33;;;;;;;1.23;0.60;;;;;;;;;;5053814;28;20132;-57
2023/02/18 11:48:06;;;;;;;0.90;0.50;;;;;;;;;;5053267;28;20470;-57
2023/02/18 11:50:33;;;;;;;2.10;0.60;;;;;;;;;;5053260;28;20060;-57
2023/02/18 11:52:59;;;;;;;1.13;0.50;;;;;;;;;;5053238;28;20409;-57
2023/02/18 11:55:26;;;;;;;1.08;0.60;;;;;;;;;;5056946;28;20029;-56
2023/02/18 11:57:55;;;;;;;1.77;0.70;;;;;;;;;;5056877;28;20116;-56
2023/02/18 12:00:30;;;;;;;2.35;0.45;;;;;;;;;;5057037;28;20025;-55
2023/02/18 12:02:58;;;;;;;1.55;0.57;;;;;;;;;;5056645;28;20052;-56
2023/02/18 12:05:24;;;;;;;0.57;0.28;;;;;;;;;;5057264;28;20036;-57
2023/02/18 12:07:55;;;;;;;1.02;0.30;;;;;;;;;;5057337;28;20052;-57
2023/02/18 12:10:33;;;;;;;0.98;0.30;;;;;;;;;;5057209;28;20104;-57
2023/02/18 12:13:03;;;;;;;2.40;0.50;;;;;;;;;;5056702;28;20143;-57
2023/02/18 12:15:33;;;;;;;1.70;0.93;;;;;;;;;;5057446;28;20037;-56
2023/02/18 12:18:02;;;;;;;1.20;0.50;;;;;;;;;;5056697;28;20108;-56
2023/02/18 12:20:28;;;;;;;1.27;0.50;;;;;;;;;;5056553;28;20028;-57
2023/02/18 12:22:55;;;;;;;1.98;0.80;;;;;;;;;;5056535;28;20108;-57
2023/02/18 12:25:43;;;;;;;0.93;0.40;;;;;;;;;;5056732;28;20447;-58
2023/02/18 12:28:28;;;;;;;1.20;0.70;;;;;;;;;;5056505;28;20036;-57
2023/02/18 12:31:01;;;;;;;1.35;0.65;;;;;;;;;;5056396;28;20087;-60
2023/02/18 12:33:46;;;;;;;3.50;0.75;;;;;;;;;;5056361;28;20087;-57
2023/02/18 12:36:30;;;;;;;1.13;0.55;;;;;;;;;;5056635;28;20040;-58
2023/02/18 12:39:19;;;;;;;1.33;0.82;;;;;;;;;;5055850;28;20025;-58
2023/02/18 12:41:45;;;;;;;1.40;0.77;;;;;;;;;;5056182;28;20025;-56
2023/02/18 12:44:14;;;;;;;1.85;0.85;;;;;;;;;;5056082;28;20032;-57
2023/02/18 12:46:46;;;;;;;1.30;0.70;;;;;;;;;;5056699;28;20078;-56
2023/02/18 12:49:38;;;;;;;2.13;1.08;;;;;;;;;;5055943;28;20043;-56
2023/02/18 12:52:13;;;;;;;1.65;0.88;;;;;;;;;;5047683;28;20036;-56
2023/02/18 12:54:58;;;;;;;2.03;1.13;;;;;;;;;;5056399;28;20115;-57
2023/02/18 12:57:26;;;;;;;2.75;0.93;;;;;;;;;;5055925;28;20062;-57
2023/02/18 13:00:11;;;;;;;1.60;0.70;;;;;;;;;;5055923;28;20029;-57
2023/02/18 13:02:55;;;;;;;1.60;0.98;;;;;;;;;;5056023;28;20364;-56
2023/02/18 13:05:24;;;;;;;1.42;0.73;;;;;;;;;;5055226;28;20029;-57
2023/02/18 13:07:50;;;;;;;2.30;1.10;;;;;;;;;;5054428;28;20033;-56
2023/02/18 13:10:36;;;;;;;2.25;1.00;;;;;;;;;;5055771;28;20116;-57
2023/02/18 13:13:23;;;;;;;1.38;0.80;;;;;;;;;;5055607;28;20506;-57
2023/02/18 13:15:58;;;;;;;3.28;1.15;;;;;;;;;;5055932;28;20525;-57
2023/02/18 13:18:27;;;;;;;1.40;0.60;;;;;;;;;;5055651;28;20033;-57
2023/02/18 13:20:54;;;;;;;2.03;0.82;;;;;;;;;;5055388;28;20043;-57
2023/02/18 13:23:26;;;;;;;1.60;1.02;;;;;;;;;;5055561;28;20025;-57
2023/02/18 13:25:56;;;;;;;2.85;0.77;;;;;;;;;;5056025;28;20029;-57
2023/02/18 13:28:31;;;;;;;1.20;0.50;;;;;;;;;;5055812;28;20078;-56
2023/02/18 13:31:17;;;;;;;2.38;1.13;;;;;;;;;;5055477;28;20124;-58
2023/02/18 13:33:52;;;;;;;2.33;1.20;;;;;;;;;;5051326;28;20063;-57
2023/02/18 13:36:18;;;;;;;2.65;1.30;;;;;;;;;;5055131;28;20021;-58
2023/02/18 13:39:00;;;;;;;2.50;1.00;;;;;;;;;;5054853;28;20402;-57
2023/02/18 13:41:27;;;;;;;2.47;1.45;;;;;;;;;;5055557;28;20405;-58
2023/02/18 13:43:53;;;;;;;1.42;0.68;;;;;;;;;;5055394;28;20086;-57
2023/02/18 13:46:23;;;;;;;3.92;1.25;;;;;;;;;;5055931;28;20033;-57
2023/02/18 13:49:05;;;;;;;1.95;0.98;;;;;;;;;;5055089;28;20114;-58
2023/02/18 13:51:32;;;;;;;2.17;1.33;;;;;;;;;;5055258;28;20463;-58
2023/02/18 13:54:18;;;;;;;2.10;1.23;;;;;;;;;;5055235;28;20017;-58
2023/02/18 13:56:46;;;;;;;2.10;0.93;;;;;;;;;;5055279;28;20021;-58
2023/02/18 13:59:12;;;;;;;2.08;1.15;;;;;;;;;;5054498;28;20036;-57
2023/02/18 14:01:38;;;;;;;2.33;1.23;;;;;;;;;;5055382;28;20024;-58
2023/02/18 14:04:24;;;;;;;2.08;1.00;;;;;;;;;;5053258;28;20044;-58
2023/02/18 14:07:08;;;;;;;2.83;1.23;;;;;;;;;;5054708;28;20060;-58
2023/02/18 14:09:36;;;;;;;3.22;1.30;;;;;;;;;;5054255;28;20048;-57
2023/02/18 14:12:17;;;;;;;3.63;1.65;;;;;;;;;;5054604;28;20033;-58
2023/02/18 14:14:58;;;;;;;3.72;1.48;;;;;;;;;;5071126;28;20044;-57
2023/02/18 14:17:32;;;;;;;1.88;1.02;;;;;;;;;;5071060;28;20028;-57
2023/02/18 14:20:01;;;;;;;2.03;1.00;;;;;;;;;;5071231;28;20409;-56
2023/02/18 14:22:28;;;;;;;1.88;1.10;;;;;;;;;;5071644;28;20021;-57
2023/02/18 14:25:15;;;;;;;2.90;1.42;;;;;;;;;;5071590;28;20029;-57
2023/02/18 14:27:42;;;;;;;1.75;1.00;;;;;;;;;;5070867;28;20375;-57
2023/02/18 14:30:21;;;;;;;2.10;1.25;;;;;;;;;;5070823;28;20036;-57
2023/02/18 14:32:48;;;;;;;9.15;2.65;;;;;;;;;;5070371;28;20032;-57
2023/02/18 14:35:14;;;;;;;6.78;1.70;;;;;;;;;;5071031;28;20025;-57
2023/02/18 14:37:40;;;;;;;4.00;1.40;;;;;;;;;;5070679;28;20029;-57
2023/02/18 14:40:14;;;;;;;2.17;1.10;;;;;;;;;;5070944;28;20028;-57
2023/02/18 14:43:03;;;;;;;4.90;1.40;;;;;;;;;;5069869;28;20409;-57
2023/02/18 14:45:30;;;;;;;2.50;1.23;;;;;;;;;;5070682;28;20052;-57
2023/02/18 14:48:02;;;;;;;1.38;0.85;;;;;;;;;;5070484;28;20029;-56
2023/02/18 14:50:31;;;;;;;2.17;0.85;;;;;;;;;;5070102;28;20036;-58
2023/02/18 14:52:58;;;;;;;2.72;1.30;;;;;;;;;;5070980;28;20067;-56
2023/02/18 14:55:29;;;;;;;2.60;1.27;;;;;;;;;;5070376;28;20111;-56
2023/02/18 14:58:00;;;;;;;3.28;1.15;;;;;;;;;;5070139;28;20029;-59